Time;durP1;ratioP1;P1;durP2;ratioP2;P2;SDS_P1;SDS_P2;PMS_P1;PMS_P2;Temp;Humidity;BMP_temperature;BMP_pressure;BME280_temperature;BME280_humidity;BME280_pressure;Samples;Min_cycle;Max_cycle;Signal;HPM_P1;HPM_P2
2022/01/05 00:01:54;;;;;;;;;;;5.70;99.90;;;;;;5054654;28;19925;-84
2022/01/05 00:04:21;;;;;;;;;;;5.80;99.90;;;;;;5058365;28;19989;-86
2022/01/05 00:06:48;;;;;;;;;;;5.70;99.90;;;;;;5040433;28;19932;-86
2022/01/05 00:09:16;;;;;;;;;;;5.70;99.90;;;;;;5038676;28;19928;-84
2022/01/05 00:11:43;;;;;;;;;;;5.70;99.90;;;;;;5056707;28;19937;-86
2022/01/05 00:14:10;;;;;;;;;;;5.70;99.90;;;;;;5056274;28;19925;-85
2022/01/05 00:16:37;;;;;;;;;;;5.70;99.90;;;;;;5039825;28;19929;-84
2022/01/05 00:19:04;;;;;;;;;;;5.70;99.90;;;;;;5059645;28;19925;-88
2022/01/05 00:21:31;;;;;;;;;;;5.70;99.90;;;;;;5057257;28;19928;-84
2022/01/05 00:23:58;;;;;;;;;;;5.60;99.90;;;;;;5055388;28;19924;-84
2022/01/05 00:26:27;;;;;;;;;;;5.70;99.90;;;;;;5036939;28;19925;-85
2022/01/05 00:28:54;;;;;;;;;;;5.70;99.90;;;;;;5059396;28;20226;-86
2022/01/05 00:31:21;;;;;;;;;;;5.70;99.90;;;;;;5044180;28;19933;-86
2022/01/05 00:33:50;;;;;;;;;;;5.60;99.90;;;;;;5049917;28;19980;-86
2022/01/05 00:36:16;;;;;;;;;;;5.60;99.90;;;;;;5055887;28;19941;-86
2022/01/05 00:38:43;;;;;;;;;;;5.60;99.90;;;;;;5050620;28;19932;-87
2022/01/05 00:41:10;;;;;;;;;;;5.60;99.90;;;;;;5054345;28;19924;-87
2022/01/05 00:43:39;;;;;;;;;;;5.50;99.90;;;;;;5039155;28;19925;-86
2022/01/05 00:46:06;;;;;;;;;;;5.60;99.90;;;;;;5057375;28;19924;-86
2022/01/05 00:48:34;;;;;;;;;;;5.60;99.90;;;;;;5041760;28;19925;-88
2022/01/05 00:51:02;;;;;;;;;;;5.60;99.90;;;;;;5053809;28;19963;-87
2022/01/05 00:53:29;;;;;;;;;;;5.50;99.90;;;;;;5040720;28;19928;-87
2022/01/05 00:55:56;;;;;;;;;;;5.50;99.90;;;;;;5038884;28;19925;-87
2022/01/05 00:58:23;;;;;;;;;;;5.50;99.90;;;;;;5061730;28;19932;-88
2022/01/05 01:00:52;;;;;;;;;;;5.50;99.90;;;;;;5052166;28;19935;-86
2022/01/05 01:03:19;;;;;;;;;;;5.50;99.90;;;;;;5057028;28;19929;-84
2022/01/05 01:05:46;;;;;;;;;;;5.50;99.90;;;;;;5059938;28;19932;-86
2022/01/05 01:08:13;;;;;;;;;;;5.40;99.90;;;;;;5038938;28;20291;-84
2022/01/05 01:10:40;;;;;;;;;;;5.40;99.90;;;;;;5058038;28;19925;-87
2022/01/05 01:13:07;;;;;;;;;;;5.40;99.90;;;;;;5041053;28;19925;-85
2022/01/05 01:15:34;;;;;;;;;;;5.50;99.90;;;;;;5064053;28;19931;-87
2022/01/05 01:18:02;;;;;;;;;;;5.40;99.90;;;;;;5039595;28;19928;-86
2022/01/05 01:20:29;;;;;;;;;;;5.50;99.90;;;;;;5023365;28;19929;-85
2022/01/05 01:22:57;;;;;;;;;;;5.40;99.90;;;;;;5034189;28;19925;-90
2022/01/05 01:25:24;;;;;;;;;;;5.40;99.90;;;;;;5038032;28;20195;-86
2022/01/05 01:27:51;;;;;;;;;;;5.40;99.90;;;;;;5057039;28;19932;-86
2022/01/05 01:30:18;;;;;;;;;;;5.40;99.90;;;;;;5041191;28;19932;-86
2022/01/05 01:32:44;;;;;;;;;;;5.40;99.90;;;;;;5042098;28;19924;-84
2022/01/05 01:35:13;;;;;;;;;;;5.40;99.90;;;;;;5068052;28;19924;-84
2022/01/05 01:37:40;;;;;;;;;;;5.40;99.90;;;;;;5044154;28;19936;-85
2022/01/05 01:40:08;;;;;;;;;;;5.40;99.90;;;;;;5041927;28;19933;-87
2022/01/05 01:42:35;;;;;;;;;;;5.40;99.90;;;;;;5055960;28;19931;-87
2022/01/05 01:45:02;;;;;;;;;;;5.30;99.90;;;;;;5036006;28;19925;-86
2022/01/05 01:47:29;;;;;;;;;;;5.40;99.90;;;;;;5068482;28;19925;-90
2022/01/05 01:49:56;;;;;;;;;;;5.30;99.90;;;;;;5053416;28;19976;-86
2022/01/05 01:52:24;;;;;;;;;;;5.30;99.90;;;;;;5054076;28;19925;-88
2022/01/05 01:54:51;;;;;;;;;;;5.30;99.90;;;;;;5052399;28;19951;-86
2022/01/05 01:57:19;;;;;;;;;;;5.30;99.90;;;;;;5056702;28;20820;-86
2022/01/05 01:59:46;;;;;;;;;;;5.30;99.90;;;;;;5036504;28;19925;-86
2022/01/05 02:02:13;;;;;;;;;;;5.30;99.90;;;;;;5061704;28;19924;-86
2022/01/05 02:04:41;;;;;;;;;;;5.30;99.90;;;;;;5050514;28;19933;-86
2022/01/05 02:07:08;;;;;;;;;;;5.30;99.90;;;;;;5057041;28;19975;-86
2022/01/05 02:09:36;;;;;;;;;;;5.30;99.90;;;;;;5039810;28;19971;-88
2022/01/05 02:12:05;;;;;;;;;;;5.30;99.90;;;;;;5037179;28;19933;-86
2022/01/05 02:14:32;;;;;;;;;;;5.30;99.90;;;;;;5036506;28;19937;-86
2022/01/05 02:17:03;;;;;;;;;;;5.30;99.90;;;;;;5054372;28;20398;-85
2022/01/05 02:19:29;;;;;;;;;;;5.20;99.90;;;;;;5057322;28;20310;-88
2022/01/05 02:21:58;;;;;;;;;;;5.30;99.90;;;;;;5053174;28;19932;-90
2022/01/05 02:24:25;;;;;;;;;;;5.30;99.90;;;;;;5037307;28;20406;-86
2022/01/05 02:26:52;;;;;;;;;;;5.20;99.90;;;;;;5055622;28;19935;-89
2022/01/05 02:29:19;;;;;;;;;;;5.20;99.90;;;;;;5040363;28;19936;-86
2022/01/05 02:31:45;;;;;;;;;;;5.20;99.90;;;;;;5055235;28;19940;-86
2022/01/05 02:34:15;;;;;;;;;;;5.30;99.90;;;;;;5040348;28;19972;-86
2022/01/05 02:36:42;;;;;;;;;;;5.20;99.90;;;;;;5057838;28;19951;-88
2022/01/05 02:39:10;;;;;;;;;;;5.20;99.90;;;;;;5057336;28;19960;-85
2022/01/05 02:41:37;;;;;;;;;;;5.20;99.90;;;;;;5055075;28;20367;-86
2022/01/05 02:44:04;;;;;;;;;;;5.10;99.90;;;;;;5037217;28;19931;-89
2022/01/05 02:46:32;;;;;;;;;;;5.20;99.90;;;;;;5055166;28;20398;-86
2022/01/05 02:48:59;;;;;;;;;;;5.20;99.90;;;;;;5045423;28;19932;-88
2022/01/05 02:51:26;;;;;;;;;;;5.10;99.90;;;;;;5045714;28;19987;-86
2022/01/05 02:53:53;;;;;;;;;;;5.20;99.90;;;;;;5036738;28;20383;-85
2022/01/05 02:56:21;;;;;;;;;;;5.10;99.90;;;;;;5059600;28;19932;-85
2022/01/05 02:58:48;;;;;;;;;;;5.10;99.90;;;;;;5034320;28;19987;-83
2022/01/05 03:01:15;;;;;;;;;;;5.10;99.90;;;;;;5035778;28;19928;-86
2022/01/05 03:03:42;;;;;;;;;;;5.10;99.90;;;;;;5032934;28;19932;-86
2022/01/05 03:06:09;;;;;;;;;;;5.10;99.90;;;;;;5033994;28;19931;-86
2022/01/05 03:08:36;;;;;;;;;;;5.10;99.90;;;;;;5038967;28;19991;-85
2022/01/05 03:11:04;;;;;;;;;;;5.10;99.90;;;;;;5055705;28;19925;-87
2022/01/05 03:13:32;;;;;;;;;;;5.00;99.90;;;;;;5055807;28;19980;-86
2022/01/05 03:15:59;;;;;;;;;;;5.00;99.90;;;;;;5048370;28;19947;-90
2022/01/05 03:18:26;;;;;;;;;;;5.00;99.90;;;;;;5037677;28;20013;-86
2022/01/05 03:20:53;;;;;;;;;;;5.00;99.90;;;;;;5060103;28;19995;-86
2022/01/05 03:23:19;;;;;;;;;;;5.00;99.90;;;;;;5062194;28;19995;-86
2022/01/05 03:25:46;;;;;;;;;;;5.00;99.90;;;;;;5038806;28;19925;-86
2022/01/05 03:28:13;;;;;;;;;;;5.00;99.90;;;;;;5054148;28;19979;-88
2022/01/05 03:30:42;;;;;;;;;;;5.00;99.90;;;;;;5054188;28;19929;-86
2022/01/05 03:33:11;;;;;;;;;;;4.90;99.90;;;;;;5045387;28;19924;-86
2022/01/05 03:35:40;;;;;;;;;;;4.90;99.90;;;;;;5039238;28;19952;-86
2022/01/05 03:38:07;;;;;;;;;;;5.00;99.90;;;;;;5053318;28;19932;-90
2022/01/05 03:40:34;;;;;;;;;;;5.00;99.90;;;;;;5038838;28;19943;-90
2022/01/05 03:43:02;;;;;;;;;;;4.90;99.90;;;;;;5052801;28;19929;-91
2022/01/05 03:45:29;;;;;;;;;;;4.90;99.90;;;;;;5037112;28;20449;-85
2022/01/05 03:47:57;;;;;;;;;;;4.90;99.90;;;;;;5038969;28;19925;-87
2022/01/05 03:50:24;;;;;;;;;;;4.90;99.90;;;;;;5043649;28;19952;-86
2022/01/05 03:52:51;;;;;;;;;;;4.90;99.90;;;;;;5039025;28;20307;-86
2022/01/05 03:55:18;;;;;;;;;;;4.90;99.90;;;;;;5057823;28;19936;-88
2022/01/05 03:57:45;;;;;;;;;;;4.90;99.90;;;;;;5049834;28;19933;-86
2022/01/05 04:00:13;;;;;;;;;;;4.90;99.90;;;;;;5055127;28;20129;-86
2022/01/05 04:02:40;;;;;;;;;;;4.90;99.90;;;;;;5060423;28;19932;-84
2022/01/05 04:05:09;;;;;;;;;;;4.90;99.90;;;;;;5056544;28;19925;-87
2022/01/05 04:07:36;;;;;;;;;;;4.80;99.90;;;;;;5056922;28;20286;-86
2022/01/05 04:10:03;;;;;;;;;;;4.80;99.90;;;;;;5045089;28;19940;-85
2022/01/05 04:12:30;;;;;;;;;;;4.90;99.90;;;;;;5056370;28;20372;-86
2022/01/05 04:14:57;;;;;;;;;;;4.80;99.90;;;;;;5064744;28;19924;-85
2022/01/05 04:17:24;;;;;;;;;;;4.80;99.90;;;;;;5053933;28;19925;-85
2022/01/05 04:19:50;;;;;;;;;;;4.80;99.90;;;;;;5057178;28;20406;-84
2022/01/05 04:22:19;;;;;;;;;;;4.80;99.90;;;;;;5057044;28;19924;-85
2022/01/05 04:24:46;;;;;;;;;;;4.80;99.90;;;;;;5058167;28;19924;-83
2022/01/05 04:27:12;;;;;;;;;;;4.80;99.90;;;;;;5041258;28;20353;-84
2022/01/05 04:29:39;;;;;;;;;;;4.80;99.90;;;;;;5064325;28;19928;-84
2022/01/05 04:32:07;;;;;;;;;;;4.80;99.90;;;;;;5039531;28;19925;-86
2022/01/05 04:34:34;;;;;;;;;;;4.80;99.90;;;;;;5066302;28;19960;-85
2022/01/05 04:37:01;;;;;;;;;;;4.80;99.90;;;;;;5066189;28;20322;-84
2022/01/05 04:39:29;;;;;;;;;;;4.80;99.90;;;;;;5066956;28;19925;-86
2022/01/05 04:41:56;;;;;;;;;;;4.70;99.90;;;;;;5058276;28;20298;-86
2022/01/05 04:44:23;;;;;;;;;;;4.70;99.90;;;;;;5062733;28;19932;-84
2022/01/05 04:46:50;;;;;;;;;;;4.70;99.90;;;;;;5045996;28;19956;-86
2022/01/05 04:49:17;;;;;;;;;;;4.70;99.90;;;;;;5062887;28;19991;-86
2022/01/05 04:51:44;;;;;;;;;;;4.70;99.90;;;;;;5043654;28;19928;-88
2022/01/05 04:54:10;;;;;;;;;;;4.70;99.90;;;;;;5054582;28;19935;-85
2022/01/05 04:56:39;;;;;;;;;;;4.70;99.90;;;;;;5062001;28;19968;-84
2022/01/05 04:59:06;;;;;;;;;;;4.70;99.90;;;;;;5041384;28;19968;-87
2022/01/05 05:01:33;;;;;;;;;;;4.60;99.90;;;;;;5061593;28;19932;-84
2022/01/05 05:04:00;;;;;;;;;;;4.60;99.90;;;;;;5037072;28;19980;-84
2022/01/05 05:06:26;;;;;;;;;;;4.60;99.90;;;;;;5065119;28;20322;-87
2022/01/05 05:08:53;;;;;;;;;;;4.60;99.90;;;;;;5042582;28;19924;-85
2022/01/05 05:11:20;;;;;;;;;;;4.60;99.90;;;;;;5050794;28;19943;-84
2022/01/05 05:13:49;;;;;;;;;;;4.60;99.90;;;;;;5031477;28;20017;-85
2022/01/05 05:16:16;;;;;;;;;;;4.60;99.90;;;;;;5051715;28;19954;-84
2022/01/05 05:18:43;;;;;;;;;;;4.60;99.90;;;;;;5045374;28;19928;-85
2022/01/05 05:21:09;;;;;;;;;;;4.60;99.90;;;;;;5060834;28;20123;-84
2022/01/05 05:23:37;;;;;;;;;;;4.60;99.90;;;;;;5048296;28;20386;-87
2022/01/05 05:26:04;;;;;;;;;;;4.50;99.90;;;;;;5040627;28;19925;-86
2022/01/05 05:28:31;;;;;;;;;;;4.50;99.90;;;;;;5043790;28;19925;-87
2022/01/05 05:30:59;;;;;;;;;;;4.50;99.90;;;;;;5045950;28;19925;-84
2022/01/05 05:33:26;;;;;;;;;;;4.60;99.90;;;;;;5055651;28;19929;-84
2022/01/05 05:35:53;;;;;;;;;;;4.50;99.90;;;;;;5059483;28;20318;-87
2022/01/05 05:38:20;;;;;;;;;;;4.50;99.90;;;;;;5068716;28;19924;-84
2022/01/05 05:40:47;;;;;;;;;;;4.50;99.90;;;;;;5058806;28;19932;-84
2022/01/05 05:43:13;;;;;;;;;;;4.50;99.90;;;;;;5036740;28;20352;-87
2022/01/05 05:45:40;;;;;;;;;;;4.50;99.90;;;;;;5030557;28;19924;-84
2022/01/05 05:48:09;;;;;;;;;;;4.50;99.90;;;;;;5056054;28;20391;-88
2022/01/05 05:50:35;;;;;;;;;;;4.50;99.90;;;;;;5042786;28;19924;-84
2022/01/05 05:53:05;;;;;;;;;;;4.50;99.90;;;;;;5059218;28;19935;-84
2022/01/05 05:55:33;;;;;;;;;;;4.50;99.90;;;;;;5059426;28;20302;-84
2022/01/05 05:58:00;;;;;;;;;;;4.40;99.90;;;;;;5059268;28;20377;-85
2022/01/05 06:00:29;;;;;;;;;;;4.40;99.90;;;;;;5050584;28;19952;-85
2022/01/05 06:02:56;;;;;;;;;;;4.40;99.90;;;;;;5053428;28;19947;-85
2022/01/05 06:05:25;;;;;;;;;;;4.40;99.90;;;;;;5055045;28;19987;-85
2022/01/05 06:07:52;;;;;;;;;;;4.40;99.90;;;;;;5063636;28;19924;-88
2022/01/05 06:10:19;;;;;;;;;;;4.40;99.90;;;;;;5052846;28;20446;-85
2022/01/05 06:12:46;;;;;;;;;;;4.40;99.90;;;;;;5046395;28;19925;-88
2022/01/05 06:15:13;;;;;;;;;;;4.40;99.90;;;;;;5069204;28;20404;-85
2022/01/05 06:17:39;;;;;;;;;;;4.40;99.90;;;;;;5040887;28;19925;-85
2022/01/05 06:20:07;;;;;;;;;;;4.40;99.90;;;;;;5057762;28;19925;-85
2022/01/05 06:22:37;;;;;;;;;;;4.40;99.90;;;;;;5053421;28;20385;-88
2022/01/05 06:25:05;;;;;;;;;;;4.40;99.90;;;;;;5055670;28;19939;-84
2022/01/05 06:27:31;;;;;;;;;;;4.40;99.90;;;;;;5056654;28;19928;-86
2022/01/05 06:30:02;;;;;;;;;;;4.30;99.90;;;;;;5042721;28;20446;-86
2022/01/05 06:32:29;;;;;;;;;;;4.30;99.90;;;;;;5059568;28;19925;-86
2022/01/05 06:34:55;;;;;;;;;;;4.30;99.90;;;;;;5051566;28;19960;-85
2022/01/05 06:37:23;;;;;;;;;;;4.30;99.90;;;;;;5042481;28;19935;-89
2022/01/05 06:39:51;;;;;;;;;;;4.30;99.90;;;;;;5055856;28;19980;-84
2022/01/05 06:42:18;;;;;;;;;;;4.30;99.90;;;;;;5054290;28;19928;-85
2022/01/05 06:44:45;;;;;;;;;;;4.30;99.90;;;;;;5048931;28;19932;-85
2022/01/05 06:47:12;;;;;;;;;;;4.30;99.90;;;;;;5055267;28;19935;-87
2022/01/05 06:49:39;;;;;;;;;;;4.30;99.90;;;;;;5057525;28;19925;-87
2022/01/05 06:52:06;;;;;;;;;;;4.30;99.90;;;;;;5057532;28;19959;-84
2022/01/05 06:54:33;;;;;;;;;;;4.30;99.90;;;;;;5059053;28;20287;-88
2022/01/05 06:57:01;;;;;;;;;;;4.20;99.90;;;;;;5056687;28;19925;-86
2022/01/05 06:59:28;;;;;;;;;;;4.20;99.90;;;;;;5039014;28;19925;-84
2022/01/05 07:01:55;;;;;;;;;;;4.20;99.90;;;;;;5040437;28;19924;-87
2022/01/05 07:04:22;;;;;;;;;;;4.10;99.90;;;;;;5046338;28;19936;-84
2022/01/05 07:06:49;;;;;;;;;;;4.10;99.90;;;;;;5043028;28;19932;-86
2022/01/05 07:09:16;;;;;;;;;;;4.10;99.90;;;;;;5035935;28;19925;-88
2022/01/05 07:11:43;;;;;;;;;;;4.10;99.90;;;;;;5039462;28;19928;-84
2022/01/05 07:14:11;;;;;;;;;;;4.00;99.90;;;;;;5055096;28;19924;-87
2022/01/05 07:16:38;;;;;;;;;;;4.00;99.90;;;;;;5039315;28;19925;-84
2022/01/05 07:19:05;;;;;;;;;;;3.90;99.90;;;;;;5057093;28;20402;-85
2022/01/05 07:21:33;;;;;;;;;;;3.90;99.90;;;;;;5039937;28;19932;-87
2022/01/05 07:24:00;;;;;;;;;;;3.90;99.90;;;;;;5037320;28;19931;-87
2022/01/05 07:26:27;;;;;;;;;;;3.90;99.90;;;;;;5057593;28;19925;-88
2022/01/05 07:28:54;;;;;;;;;;;3.80;99.90;;;;;;5054587;28;19925;-86
2022/01/05 07:31:22;;;;;;;;;;;3.80;99.90;;;;;;5055438;28;20403;-84
2022/01/05 07:33:49;;;;;;;;;;;3.80;99.90;;;;;;5037195;28;19933;-84
2022/01/05 07:36:16;;;;;;;;;;;3.80;99.90;;;;;;5050166;28;20480;-85
2022/01/05 07:38:43;;;;;;;;;;;3.80;99.90;;;;;;5042865;28;19935;-83
2022/01/05 07:41:10;;;;;;;;;;;3.80;99.90;;;;;;5056731;28;20453;-86
2022/01/05 07:43:37;;;;;;;;;;;3.80;99.90;;;;;;5041663;28;20037;-84
2022/01/05 07:46:05;;;;;;;;;;;3.70;99.90;;;;;;5054387;28;19960;-86
2022/01/05 07:48:33;;;;;;;;;;;3.70;99.90;;;;;;5048118;28;19925;-84
2022/01/05 07:51:00;;;;;;;;;;;3.80;99.90;;;;;;5053401;28;19983;-84
2022/01/05 07:53:27;;;;;;;;;;;3.70;99.90;;;;;;5059628;28;19925;-85
2022/01/05 07:55:54;;;;;;;;;;;3.70;99.90;;;;;;5039778;28;19925;-84
2022/01/05 07:58:23;;;;;;;;;;;3.60;99.90;;;;;;5039010;28;19984;-86
2022/01/05 08:00:50;;;;;;;;;;;3.70;99.90;;;;;;5054657;28;19955;-91
2022/01/05 08:03:17;;;;;;;;;;;3.60;99.90;;;;;;5041340;28;19932;-90
2022/01/05 08:05:45;;;;;;;;;;;3.70;99.90;;;;;;5028813;28;19925;-86
2022/01/05 08:08:12;;;;;;;;;;;3.60;99.90;;;;;;5046775;28;20356;-85
2022/01/05 08:10:39;;;;;;;;;;;3.60;99.90;;;;;;5035475;28;19940;-88
2022/01/05 08:13:06;;;;;;;;;;;3.60;99.90;;;;;;5053716;28;20365;-85
2022/01/05 08:15:33;;;;;;;;;;;3.60;99.90;;;;;;5057416;28;19943;-85
2022/01/05 08:18:00;;;;;;;;;;;3.60;99.90;;;;;;5061310;28;19928;-85
2022/01/05 08:20:27;;;;;;;;;;;3.60;99.90;;;;;;5056554;28;19931;-86
2022/01/05 08:22:55;;;;;;;;;;;3.60;99.90;;;;;;5036382;28;19924;-90
2022/01/05 08:25:22;;;;;;;;;;;3.50;99.90;;;;;;5050104;28;19947;-85
2022/01/05 08:27:49;;;;;;;;;;;3.50;99.90;;;;;;5057936;28;19939;-88
2022/01/05 08:30:17;;;;;;;;;;;3.50;99.90;;;;;;5043190;28;20361;-86
2022/01/05 08:32:44;;;;;;;;;;;3.50;99.90;;;;;;5056163;28;19931;-86
2022/01/05 08:35:12;;;;;;;;;;;3.50;99.90;;;;;;5059374;28;19925;-86
2022/01/05 08:37:39;;;;;;;;;;;3.50;99.90;;;;;;5053604;28;20016;-86
2022/01/05 08:40:08;;;;;;;;;;;3.50;99.90;;;;;;5055886;28;19925;-89
2022/01/05 08:42:35;;;;;;;;;;;3.40;99.90;;;;;;5052436;28;19948;-85
2022/01/05 08:45:02;;;;;;;;;;;3.40;99.90;;;;;;5054855;28;19940;-90
2022/01/05 08:47:30;;;;;;;;;;;3.40;99.90;;;;;;5032141;28;19932;-88
2022/01/05 08:49:57;;;;;;;;;;;3.40;99.90;;;;;;5054215;28;20445;-88
2022/01/05 08:52:24;;;;;;;;;;;3.40;99.90;;;;;;5057514;28;19933;-85
2022/01/05 08:54:51;;;;;;;;;;;3.40;99.90;;;;;;5037299;28;20333;-86
2022/01/05 08:57:20;;;;;;;;;;;3.30;99.90;;;;;;5052233;28;19931;-88
2022/01/05 08:59:47;;;;;;;;;;;3.30;99.90;;;;;;5057494;28;20027;-86
2022/01/05 09:02:15;;;;;;;;;;;3.30;99.90;;;;;;5054780;28;19929;-88
2022/01/05 09:04:42;;;;;;;;;;;3.30;99.90;;;;;;5040119;28;20412;-85
2022/01/05 09:07:10;;;;;;;;;;;3.20;99.90;;;;;;5053317;28;19975;-85
2022/01/05 09:09:37;;;;;;;;;;;3.20;99.90;;;;;;5036638;28;19999;-88
2022/01/05 09:12:04;;;;;;;;;;;3.20;99.90;;;;;;5035926;28;19928;-85
2022/01/05 09:14:33;;;;;;;;;;;3.20;99.90;;;;;;5056371;28;19925;-86
2022/01/05 09:16:59;;;;;;;;;;;3.20;99.90;;;;;;5037764;28;19925;-85
2022/01/05 09:19:28;;;;;;;;;;;3.20;99.90;;;;;;5058191;28;19932;-85
2022/01/05 09:21:55;;;;;;;;;;;3.20;99.90;;;;;;5042013;28;19973;-89
2022/01/05 09:24:22;;;;;;;;;;;3.20;99.90;;;;;;5056152;28;20371;-88
2022/01/05 09:26:49;;;;;;;;;;;3.20;99.90;;;;;;5054766;28;20084;-87
2022/01/05 09:29:16;;;;;;;;;;;3.20;99.90;;;;;;5053529;28;19933;-86
2022/01/05 09:31:44;;;;;;;;;;;3.10;99.90;;;;;;5034826;28;20302;-85
2022/01/05 09:34:11;;;;;;;;;;;3.10;99.90;;;;;;5054160;28;19929;-86
2022/01/05 09:36:43;;;;;;;;;;;3.10;99.90;;;;;;5055572;28;19925;-87
2022/01/05 09:41:57;;;;;;;;;;;3.00;99.90;;;;;;5053892;28;20388;-88
2022/01/05 09:44:27;;;;;;;;;;;3.00;99.90;;;;;;5048424;28;19925;-86
2022/01/05 09:47:09;;;;;;;;;;;2.90;99.90;;;;;;5040208;28;19924;-88
2022/01/05 09:49:37;;;;;;;;;;;2.90;99.90;;;;;;5034513;28;19929;-88
2022/01/05 09:52:05;;;;;;;;;;;2.90;99.90;;;;;;5053501;28;19925;-87
2022/01/05 09:54:33;;;;;;;;;;;2.90;99.90;;;;;;5041129;28;19971;-85
2022/01/05 09:57:00;;;;;;;;;;;2.90;99.90;;;;;;5047809;28;19964;-88
2022/01/05 09:59:28;;;;;;;;;;;2.90;99.90;;;;;;5039137;28;19983;-85
2022/01/05 10:01:55;;;;;;;;;;;2.90;99.90;;;;;;5094976;22;20330;-76
2022/01/05 10:04:24;;;;;;;;;;;2.80;99.90;;;;;;5019527;28;20024;-76
2022/01/05 10:06:51;;;;;;;;;;;2.80;99.90;;;;;;5009624;28;19936;-76
2022/01/05 10:09:18;;;;;;;;;;;2.80;99.90;;;;;;5006562;28;19952;-78
2022/01/05 10:11:45;;;;;;;;;;;2.80;99.90;;;;;;5005228;28;19964;-76
2022/01/05 10:14:13;;;;;;;;;;;2.80;99.90;;;;;;5009759;28;19932;-78
2022/01/05 10:16:40;;;;;;;;;;;2.70;99.90;;;;;;5014601;28;19953;-76
2022/01/05 10:19:08;;;;;;;;;;;2.70;99.90;;;;;;5014349;28;19926;-78
2022/01/05 10:21:38;;;;;;;;;;;2.70;99.90;;;;;;5009285;28;19988;-76
2022/01/05 10:24:06;;;;;;;;;;;2.70;99.90;;;;;;4991774;28;20033;-76
2022/01/05 10:26:34;;;;;;;;;;;2.70;99.90;;;;;;5008619;28;19926;-76
2022/01/05 10:29:02;;;;;;;;;;;2.70;99.90;;;;;;4986988;28;20418;-76
2022/01/05 10:31:30;;;;;;;;;;;2.70;99.90;;;;;;4993229;28;19926;-76
2022/01/05 10:33:57;;;;;;;;;;;2.70;99.90;;;;;;4989123;28;20339;-76
2022/01/05 10:36:25;;;;;;;;;;;2.70;99.90;;;;;;5006518;28;19926;-76
2022/01/05 10:38:54;;;;;;;;;;;2.70;99.90;;;;;;4987165;28;20417;-76
2022/01/05 10:41:22;;;;;;;;;;;2.70;99.90;;;;;;4998557;28;19926;-76
2022/01/05 10:44:09;;;;;;;;;;;2.70;99.90;;;;;;4996551;28;20031;-76
2022/01/05 10:46:37;;;;;;;;;;;2.70;99.90;;;;;;4985111;28;19933;-76
2022/01/05 10:49:04;;;;;;;;;;;2.70;99.90;;;;;;4995187;28;19925;-76
2022/01/05 10:51:31;;;;;;;;;;;2.60;99.90;;;;;;5004816;28;19933;-76
2022/01/05 10:54:13;;;;;;;;;;;2.70;99.90;;;;;;5008120;28;19926;-76
2022/01/05 10:56:41;;;;;;;;;;;2.60;99.90;;;;;;5009803;28;19932;-76
2022/01/05 10:59:08;;;;;;;;;;;2.60;99.90;;;;;;5006543;28;19926;-76
2022/01/05 11:01:36;;;;;;;;;;;2.60;99.90;;;;;;5009335;28;19929;-76
2022/01/05 11:04:15;;;;;;;;;;;2.60;99.90;;;;;;5010472;28;19932;-76
2022/01/05 11:06:53;;;;;;;;;;;2.60;99.90;;;;;;5000129;28;19996;-76
2022/01/05 11:09:21;;;;;;;;;;;2.60;99.90;;;;;;5006601;28;19948;-76
2022/01/05 11:11:50;;;;;;;;;;;2.60;99.90;;;;;;5010159;28;19925;-76
2022/01/05 11:14:18;;;;;;;;;;;2.60;99.90;;;;;;4992211;28;19929;-76
2022/01/05 11:16:46;;;;;;;;;;;2.60;99.90;;;;;;5008131;28;19926;-76
2022/01/05 11:19:21;;;;;;;;;;;2.50;99.90;;;;;;5004863;28;20410;-76
2022/01/05 11:22:01;;;;;;;;;;;2.50;99.90;;;;;;4996016;28;19925;-75
2022/01/05 11:24:32;;;;;;;;;;;2.50;99.90;;;;;;5000260;28;21539;-76
2022/01/05 11:27:00;;;;;;;;;;;2.50;99.90;;;;;;5013675;28;19925;-75
2022/01/05 11:29:27;;;;;;;;;;;2.50;99.90;;;;;;5009928;28;19925;-76
2022/01/05 11:31:56;;;;;;;;;;;2.50;99.90;;;;;;5004692;28;19972;-76
2022/01/05 11:34:23;;;;;;;;;;;2.50;99.90;;;;;;4989165;28;20060;-76
2022/01/05 11:36:50;;;;;;;;;;;2.50;99.90;;;;;;5001353;28;19930;-76
2022/01/05 11:39:17;;;;;;;;;;;2.50;99.90;;;;;;4994782;28;19936;-76
2022/01/05 11:41:47;;;;;;;;;;;2.50;99.90;;;;;;4990385;28;19925;-77
2022/01/05 11:44:17;;;;;;;;;;;2.50;99.90;;;;;;5000289;28;20421;-76
2022/01/05 11:46:46;;;;;;;;;;;2.50;99.90;;;;;;4992925;28;19926;-76
2022/01/05 11:49:14;;;;;;;;;;;2.50;99.90;;;;;;5006548;28;20384;-76
2022/01/05 11:51:48;;;;;;;;;;;2.50;99.90;;;;;;4995605;28;19929;-76
2022/01/05 11:54:17;;;;;;;;;;;2.50;99.90;;;;;;5001855;28;20402;-76
2022/01/05 11:56:44;;;;;;;;;;;2.50;99.90;;;;;;4999709;28;19926;-76
2022/01/05 11:59:33;;;;;;;;;;;2.50;99.90;;;;;;4997779;28;19967;-76
2022/01/05 12:02:03;;;;;;;;;;;2.40;99.90;;;;;;5007016;28;20300;-76
2022/01/05 12:04:30;;;;;;;;;;;2.40;99.90;;;;;;4993508;28;19926;-76
2022/01/05 12:07:03;;;;;;;;;;;2.40;99.90;;;;;;4996920;28;19932;-77
2022/01/05 12:09:31;;;;;;;;;;;2.40;99.90;;;;;;5016565;28;20002;-76
2022/01/05 12:12:00;;;;;;;;;;;2.40;99.90;;;;;;5004252;28;19925;-76
2022/01/05 12:14:48;;;;;;;;;;;2.40;99.90;;;;;;5009618;28;19946;-76
2022/01/05 12:17:18;;;;;;;;;;;2.40;99.90;;;;;;4984440;28;19932;-76
2022/01/05 12:20:03;;;;;;;;;;;2.40;99.90;;;;;;4997337;28;20340;-75
2022/01/05 12:22:31;;;;;;;;;;;2.40;99.90;;;;;;5004399;28;20395;-76
2022/01/05 12:25:21;;;;;;;;;;;2.40;99.90;;;;;;4990196;28;20296;-76
2022/01/05 12:28:05;;;;;;;;;;;2.40;99.90;;;;;;4996615;28;19926;-75
2022/01/05 12:30:40;;;;;;;;;;;2.30;99.90;;;;;;4989835;28;19930;-75
2022/01/05 12:33:10;;;;;;;;;;;2.30;99.90;;;;;;4988609;28;19926;-76
2022/01/05 12:35:44;;;;;;;;;;;2.30;99.90;;;;;;5006170;28;19968;-76
2022/01/05 12:38:11;;;;;;;;;;;2.30;99.90;;;;;;5002629;28;19933;-77
2022/01/05 12:40:39;;;;;;;;;;;2.30;99.90;;;;;;5008091;28;19925;-76
2022/01/05 12:43:25;;;;;;;;;;;2.30;99.90;;;;;;5001268;28;19925;-77
2022/01/05 12:45:52;;;;;;;;;;;2.30;99.90;;;;;;5005087;28;20387;-76
2022/01/05 12:48:39;;;;;;;;;;;2.30;99.90;;;;;;4990143;28;19925;-76
2022/01/05 12:51:24;;;;;;;;;;;2.30;99.90;;;;;;5004383;28;20007;-76
2022/01/05 12:53:53;;;;;;;;;;;2.30;99.90;;;;;;4970553;28;19930;-75
2022/01/05 12:56:20;;;;;;;;;;;2.30;99.90;;;;;;5009986;28;19929;-76
2022/01/05 12:58:48;;;;;;;;;;;2.30;99.90;;;;;;5011271;28;19933;-76
2022/01/05 13:01:15;;;;;;;;;;;2.30;99.90;;;;;;5007864;28;19976;-76
2022/01/05 13:03:42;;;;;;;;;;;2.30;99.90;;;;;;5012102;28;19932;-76
2022/01/05 13:06:13;;;;;;;;;;;2.30;99.90;;;;;;4998173;28;20303;-75
2022/01/05 13:08:46;;;;;;;;;;;2.30;99.90;;;;;;5005156;28;19971;-76
2022/01/05 13:11:17;;;;;;;;;;;2.30;99.90;;;;;;5004270;28;19933;-76
2022/01/05 13:13:45;;;;;;;;;;;2.30;99.90;;;;;;4993778;28;19926;-75
2022/01/05 13:16:12;;;;;;;;;;;2.30;99.90;;;;;;5011239;28;20387;-75
2022/01/05 13:18:39;;;;;;;;;;;2.30;99.90;;;;;;5010382;28;19977;-76
2022/01/05 13:21:06;;;;;;;;;;;2.30;99.90;;;;;;5014775;28;19936;-76
2022/01/05 13:23:34;;;;;;;;;;;2.30;99.90;;;;;;5003866;28;19925;-75
2022/01/05 13:26:08;;;;;;;;;;;2.30;99.90;;;;;;5009188;28;20314;-76
2022/01/05 13:28:39;;;;;;;;;;;2.30;99.90;;;;;;4995774;28;20387;-76
2022/01/05 13:31:09;;;;;;;;;;;2.30;99.90;;;;;;5005821;28;19925;-75
2022/01/05 13:33:36;;;;;;;;;;;2.30;99.90;;;;;;5005463;28;19925;-76
2022/01/05 13:36:05;;;;;;;;;;;2.30;99.90;;;;;;5010914;28;19933;-76
2022/01/05 13:38:32;;;;;;;;;;;2.30;99.90;;;;;;4996253;28;19926;-75
2022/01/05 13:40:59;;;;;;;;;;;2.30;99.90;;;;;;5008237;28;19929;-75
2022/01/05 13:43:27;;;;;;;;;;;2.30;99.90;;;;;;4997110;28;20409;-75
2022/01/05 13:45:57;;;;;;;;;;;2.30;99.90;;;;;;5011767;28;19934;-75
2022/01/05 13:48:26;;;;;;;;;;;2.30;99.90;;;;;;5011722;28;20300;-76
2022/01/05 13:50:54;;;;;;;;;;;2.40;99.90;;;;;;5006289;28;19980;-76
2022/01/05 13:53:22;;;;;;;;;;;2.30;99.90;;;;;;5008834;28;20023;-76
2022/01/05 13:55:50;;;;;;;;;;;2.30;99.90;;;;;;5010072;28;19940;-75
2022/01/05 13:58:17;;;;;;;;;;;2.30;99.90;;;;;;5008012;28;19933;-75
2022/01/05 14:00:46;;;;;;;;;;;2.30;99.90;;;;;;4991498;28;19932;-76
2022/01/05 14:03:29;;;;;;;;;;;2.30;99.90;;;;;;5006009;28;19932;-75
2022/01/05 14:05:56;;;;;;;;;;;2.30;99.90;;;;;;5008609;28;19965;-75
2022/01/05 14:08:28;;;;;;;;;;;2.30;99.90;;;;;;5006499;28;19929;-75
2022/01/05 14:11:03;;;;;;;;;;;2.30;99.90;;;;;;4983827;28;20031;-76
2022/01/05 14:13:30;;;;;;;;;;;2.30;99.90;;;;;;4999160;28;19929;-76
2022/01/05 14:15:59;;;;;;;;;;;2.30;99.90;;;;;;5007189;28;20173;-76
2022/01/05 14:18:28;;;;;;;;;;;2.30;99.90;;;;;;4988844;28;19926;-76
2022/01/05 14:20:55;;;;;;;;;;;2.30;99.90;;;;;;4992724;28;20289;-76
2022/01/05 14:23:22;;;;;;;;;;;2.20;99.90;;;;;;5004442;28;19926;-75
2022/01/05 14:25:51;;;;;;;;;;;2.20;99.90;;;;;;5003078;28;19934;-76
2022/01/05 14:28:20;;;;;;;;;;;2.20;99.90;;;;;;4992273;28;19933;-76
2022/01/05 14:30:52;;;;;;;;;;;2.20;99.90;;;;;;5010321;28;20339;-76
2022/01/05 14:33:34;;;;;;;;;;;2.20;99.90;;;;;;5005108;28;19929;-75
2022/01/05 14:36:02;;;;;;;;;;;2.20;99.90;;;;;;4992404;28;19934;-75
2022/01/05 14:38:29;;;;;;;;;;;2.20;99.90;;;;;;4992776;28;20367;-76
2022/01/05 14:41:11;;;;;;;;;;;2.20;99.90;;;;;;5008750;28;19926;-75